Terminal Aerodrome Forecast
Issued by NWS

Home | Current Version | Previous Version | Text Only | Print | Product List | Glossary On
Versions: 1 2 3 4 5 6 7 8 9 10 11 12 13 14 15 16 17 18 19 20 21 22 23
000
FTPQ31 PGUM 240530
TAFGUM
TAF

TAF
PGWT 240530Z 2406/2506 09011KT P6SM VCTS SCT015CB SCT030 BKN100
      TEMPO 2406/2410 VRB12G22KT 3SM +SHRA OVC015
     FM241500 VRB07KT P6SM VCSH SCT015 SCT030 BKN120=

USA.gov is the U.S. government's official web portal to all federal, state and local government web resources and services.